sensor_id;sensor_type;location;lat;lon;timestamp;P1;durP1;ratioP1;P2;durP2;ratioP2
29816;SDS011;16805;52.956;5.906;2024-01-27T00:00:50;6.32;;;1.63;;
29816;SDS011;16805;52.956;5.906;2024-01-27T00:03:16;10.25;;;1.10;;
29816;SDS011;16805;52.956;5.906;2024-01-27T00:05:45;13.25;;;1.50;;
29816;SDS011;16805;52.956;5.906;2024-01-27T00:08:13;6.47;;;1.20;;
29816;SDS011;16805;52.956;5.906;2024-01-27T00:10:39;7.68;;;1.17;;
29816;SDS011;16805;52.956;5.906;2024-01-27T00:13:04;7.50;;;2.17;;
29816;SDS011;16805;52.956;5.906;2024-01-27T00:15:30;3.88;;;0.90;;
29816;SDS011;16805;52.956;5.906;2024-01-27T00:17:55;4.75;;;1.33;;
29816;SDS011;16805;52.956;5.906;2024-01-27T00:20:21;1.70;;;0.90;;
29816;SDS011;16805;52.956;5.906;2024-01-27T00:22:49;10.75;;;1.10;;
29816;SDS011;16805;52.956;5.906;2024-01-27T00:25:18;9.68;;;1.42;;
29816;SDS011;16805;52.956;5.906;2024-01-27T00:27:44;8.98;;;0.88;;
29816;SDS011;16805;52.956;5.906;2024-01-27T00:30:09;5.20;;;1.05;;
29816;SDS011;16805;52.956;5.906;2024-01-27T00:32:36;10.38;;;0.95;;
29816;SDS011;16805;52.956;5.906;2024-01-27T00:35:02;7.07;;;1.05;;
29816;SDS011;16805;52.956;5.906;2024-01-27T00:37:28;15.68;;;1.55;;
29816;SDS011;16805;52.956;5.906;2024-01-27T00:39:57;6.57;;;1.40;;
29816;SDS011;16805;52.956;5.906;2024-01-27T00:42:25;6.03;;;0.80;;
29816;SDS011;16805;52.956;5.906;2024-01-27T00:44:51;11.95;;;1.40;;
29816;SDS011;16805;52.956;5.906;2024-01-27T00:47:19;4.95;;;0.90;;
29816;SDS011;16805;52.956;5.906;2024-01-27T00:49:45;4.75;;;0.80;;
29816;SDS011;16805;52.956;5.906;2024-01-27T00:52:10;8.73;;;0.98;;
29816;SDS011;16805;52.956;5.906;2024-01-27T00:54:36;12.05;;;1.42;;
29816;SDS011;16805;52.956;5.906;2024-01-27T00:57:04;8.77;;;1.67;;
29816;SDS011;16805;52.956;5.906;2024-01-27T00:59:35;15.70;;;1.40;;
29816;SDS011;16805;52.956;5.906;2024-01-27T01:02:01;4.32;;;0.70;;
29816;SDS011;16805;52.956;5.906;2024-01-27T01:04:27;7.60;;;1.15;;
29816;SDS011;16805;52.956;5.906;2024-01-27T01:06:52;5.45;;;2.00;;
29816;SDS011;16805;52.956;5.906;2024-01-27T01:09:18;12.50;;;1.00;;
29816;SDS011;16805;52.956;5.906;2024-01-27T01:11:44;4.65;;;1.23;;
29816;SDS011;16805;52.956;5.906;2024-01-27T01:14:09;16.73;;;1.25;;
29816;SDS011;16805;52.956;5.906;2024-01-27T01:16:35;6.68;;;1.30;;
29816;SDS011;16805;52.956;5.906;2024-01-27T01:19:01;10.95;;;1.35;;
29816;SDS011;16805;52.956;5.906;2024-01-27T01:21:26;4.47;;;1.00;;
29816;SDS011;16805;52.956;5.906;2024-01-27T01:23:55;7.13;;;0.90;;
29816;SDS011;16805;52.956;5.906;2024-01-27T01:26:20;7.10;;;0.90;;
29816;SDS011;16805;52.956;5.906;2024-01-27T01:28:46;4.25;;;1.00;;
29816;SDS011;16805;52.956;5.906;2024-01-27T01:31:11;8.15;;;0.68;;
29816;SDS011;16805;52.956;5.906;2024-01-27T01:33:37;3.55;;;0.68;;
29816;SDS011;16805;52.956;5.906;2024-01-27T01:36:02;3.28;;;0.93;;
29816;SDS011;16805;52.956;5.906;2024-01-27T01:38:28;2.50;;;1.10;;
29816;SDS011;16805;52.956;5.906;2024-01-27T01:40:54;9.43;;;1.67;;
29816;SDS011;16805;52.956;5.906;2024-01-27T01:43:20;3.47;;;0.70;;
29816;SDS011;16805;52.956;5.906;2024-01-27T01:45:45;16.25;;;1.17;;
29816;SDS011;16805;52.956;5.906;2024-01-27T01:48:11;8.07;;;0.70;;
29816;SDS011;16805;52.956;5.906;2024-01-27T01:50:37;5.20;;;1.30;;
29816;SDS011;16805;52.956;5.906;2024-01-27T01:53:03;3.80;;;1.00;;
29816;SDS011;16805;52.956;5.906;2024-01-27T01:55:30;4.45;;;0.52;;
29816;SDS011;16805;52.956;5.906;2024-01-27T01:57:58;10.23;;;2.20;;
29816;SDS011;16805;52.956;5.906;2024-01-27T02:00:24;3.25;;;1.00;;
29816;SDS011;16805;52.956;5.906;2024-01-27T02:02:50;4.25;;;0.88;;
29816;SDS011;16805;52.956;5.906;2024-01-27T02:05:15;2.47;;;0.70;;
29816;SDS011;16805;52.956;5.906;2024-01-27T02:07:41;6.68;;;0.80;;
29816;SDS011;16805;52.956;5.906;2024-01-27T02:10:08;5.68;;;0.80;;
29816;SDS011;16805;52.956;5.906;2024-01-27T02:15:08;13.70;;;1.25;;
29816;SDS011;16805;52.956;5.906;2024-01-27T02:17:40;7.30;;;1.42;;
29816;SDS011;16805;52.956;5.906;2024-01-27T02:20:06;3.72;;;0.73;;
29816;SDS011;16805;52.956;5.906;2024-01-27T02:22:36;4.43;;;0.93;;
29816;SDS011;16805;52.956;5.906;2024-01-27T02:25:02;3.70;;;1.25;;
29816;SDS011;16805;52.956;5.906;2024-01-27T02:27:28;5.82;;;1.17;;
29816;SDS011;16805;52.956;5.906;2024-01-27T02:29:54;15.38;;;1.10;;
29816;SDS011;16805;52.956;5.906;2024-01-27T02:32:23;4.60;;;1.10;;
29816;SDS011;16805;52.956;5.906;2024-01-27T02:34:51;4.72;;;0.63;;
29816;SDS011;16805;52.956;5.906;2024-01-27T02:37:19;7.25;;;1.33;;
29816;SDS011;16805;52.956;5.906;2024-01-27T02:39:48;5.55;;;1.40;;
29816;SDS011;16805;52.956;5.906;2024-01-27T02:42:13;9.30;;;1.00;;
29816;SDS011;16805;52.956;5.906;2024-01-27T02:44:39;3.13;;;0.95;;
29816;SDS011;16805;52.956;5.906;2024-01-27T02:47:04;9.13;;;1.17;;
29816;SDS011;16805;52.956;5.906;2024-01-27T02:49:30;7.70;;;1.00;;
29816;SDS011;16805;52.956;5.906;2024-01-27T02:52:01;3.03;;;0.73;;
29816;SDS011;16805;52.956;5.906;2024-01-27T02:54:27;4.30;;;1.15;;
29816;SDS011;16805;52.956;5.906;2024-01-27T02:56:53;11.18;;;1.15;;
29816;SDS011;16805;52.956;5.906;2024-01-27T02:59:18;6.00;;;0.68;;
29816;SDS011;16805;52.956;5.906;2024-01-27T03:01:44;10.45;;;1.00;;
29816;SDS011;16805;52.956;5.906;2024-01-27T03:04:09;6.53;;;1.10;;
29816;SDS011;16805;52.956;5.906;2024-01-27T03:06:35;6.85;;;0.85;;
29816;SDS011;16805;52.956;5.906;2024-01-27T03:09:01;7.00;;;0.73;;
29816;SDS011;16805;52.956;5.906;2024-01-27T03:11:29;10.02;;;1.67;;
29816;SDS011;16805;52.956;5.906;2024-01-27T03:13:55;3.35;;;0.63;;
29816;SDS011;16805;52.956;5.906;2024-01-27T03:16:20;14.73;;;1.63;;
29816;SDS011;16805;52.956;5.906;2024-01-27T03:18:46;3.95;;;0.85;;
29816;SDS011;16805;52.956;5.906;2024-01-27T03:21:14;6.50;;;0.88;;
29816;SDS011;16805;52.956;5.906;2024-01-27T03:23:40;2.70;;;0.80;;
29816;SDS011;16805;52.956;5.906;2024-01-27T03:26:08;4.82;;;0.82;;
29816;SDS011;16805;52.956;5.906;2024-01-27T03:28:37;7.43;;;1.15;;
29816;SDS011;16805;52.956;5.906;2024-01-27T03:31:02;8.82;;;1.30;;
29816;SDS011;16805;52.956;5.906;2024-01-27T03:33:28;3.95;;;0.88;;
29816;SDS011;16805;52.956;5.906;2024-01-27T03:35:56;6.65;;;0.88;;
29816;SDS011;16805;52.956;5.906;2024-01-27T03:38:22;2.28;;;0.43;;
29816;SDS011;16805;52.956;5.906;2024-01-27T03:40:50;1.95;;;0.47;;
29816;SDS011;16805;52.956;5.906;2024-01-27T03:43:16;7.65;;;1.00;;
29816;SDS011;16805;52.956;5.906;2024-01-27T03:45:42;5.25;;;0.80;;
29816;SDS011;16805;52.956;5.906;2024-01-27T03:48:08;1.25;;;0.50;;
29816;SDS011;16805;52.956;5.906;2024-01-27T03:50:34;6.90;;;1.02;;
29816;SDS011;16805;52.956;5.906;2024-01-27T03:52:59;11.93;;;1.55;;
29816;SDS011;16805;52.956;5.906;2024-01-27T03:55:25;12.35;;;1.00;;
29816;SDS011;16805;52.956;5.906;2024-01-27T03:57:50;5.10;;;1.00;;
29816;SDS011;16805;52.956;5.906;2024-01-27T04:00:16;5.68;;;1.17;;
29816;SDS011;16805;52.956;5.906;2024-01-27T04:02:44;6.65;;;0.95;;
29816;SDS011;16805;52.956;5.906;2024-01-27T04:05:12;3.25;;;0.90;;
29816;SDS011;16805;52.956;5.906;2024-01-27T04:07:38;10.65;;;1.05;;
29816;SDS011;16805;52.956;5.906;2024-01-27T04:10:07;5.50;;;1.10;;
29816;SDS011;16805;52.956;5.906;2024-01-27T04:12:34;11.73;;;1.40;;
29816;SDS011;16805;52.956;5.906;2024-01-27T04:14:59;4.10;;;0.82;;
29816;SDS011;16805;52.956;5.906;2024-01-27T04:17:25;3.50;;;0.82;;
29816;SDS011;16805;52.956;5.906;2024-01-27T04:19:53;3.00;;;0.75;;
29816;SDS011;16805;52.956;5.906;2024-01-27T04:22:21;16.63;;;1.33;;
29816;SDS011;16805;52.956;5.906;2024-01-27T04:24:47;4.82;;;0.90;;
29816;SDS011;16805;52.956;5.906;2024-01-27T04:27:15;14.73;;;0.80;;
29816;SDS011;16805;52.956;5.906;2024-01-27T04:29:43;8.18;;;1.23;;
29816;SDS011;16805;52.956;5.906;2024-01-27T04:32:09;11.15;;;0.82;;
29816;SDS011;16805;52.956;5.906;2024-01-27T04:34:35;4.07;;;0.80;;
29816;SDS011;16805;52.956;5.906;2024-01-27T04:37:01;9.27;;;1.20;;
29816;SDS011;16805;52.956;5.906;2024-01-27T04:39:29;15.30;;;1.70;;
29816;SDS011;16805;52.956;5.906;2024-01-27T04:41:55;4.53;;;0.90;;
29816;SDS011;16805;52.956;5.906;2024-01-27T04:44:23;8.02;;;1.05;;
29816;SDS011;16805;52.956;5.906;2024-01-27T04:46:49;2.25;;;0.60;;
29816;SDS011;16805;52.956;5.906;2024-01-27T04:49:18;5.22;;;1.27;;
29816;SDS011;16805;52.956;5.906;2024-01-27T04:51:43;6.35;;;1.10;;
29816;SDS011;16805;52.956;5.906;2024-01-27T04:54:09;7.75;;;0.98;;
29816;SDS011;16805;52.956;5.906;2024-01-27T04:56:35;6.63;;;0.90;;
29816;SDS011;16805;52.956;5.906;2024-01-27T04:59:01;8.13;;;0.88;;
29816;SDS011;16805;52.956;5.906;2024-01-27T05:01:31;2.08;;;0.73;;
29816;SDS011;16805;52.956;5.906;2024-01-27T05:03:57;8.80;;;1.02;;
29816;SDS011;16805;52.956;5.906;2024-01-27T05:06:25;7.45;;;1.77;;
29816;SDS011;16805;52.956;5.906;2024-01-27T05:08:51;5.93;;;0.65;;
29816;SDS011;16805;52.956;5.906;2024-01-27T05:11:28;4.88;;;0.60;;
29816;SDS011;16805;52.956;5.906;2024-01-27T05:13:56;7.97;;;0.80;;
29816;SDS011;16805;52.956;5.906;2024-01-27T05:16:21;7.70;;;1.17;;
29816;SDS011;16805;52.956;5.906;2024-01-27T05:18:47;10.60;;;1.20;;
29816;SDS011;16805;52.956;5.906;2024-01-27T05:21:13;13.98;;;1.30;;
29816;SDS011;16805;52.956;5.906;2024-01-27T05:23:39;4.68;;;1.00;;
29816;SDS011;16805;52.956;5.906;2024-01-27T05:26:07;5.35;;;1.02;;
29816;SDS011;16805;52.956;5.906;2024-01-27T05:28:35;5.90;;;0.55;;
29816;SDS011;16805;52.956;5.906;2024-01-27T05:31:01;7.80;;;1.00;;
29816;SDS011;16805;52.956;5.906;2024-01-27T05:33:29;5.05;;;1.30;;
29816;SDS011;16805;52.956;5.906;2024-01-27T05:35:55;2.83;;;0.88;;
29816;SDS011;16805;52.956;5.906;2024-01-27T05:38:23;6.43;;;0.95;;
29816;SDS011;16805;52.956;5.906;2024-01-27T05:40:53;4.95;;;0.90;;
29816;SDS011;16805;52.956;5.906;2024-01-27T05:43:21;4.13;;;0.65;;
29816;SDS011;16805;52.956;5.906;2024-01-27T05:45:47;10.80;;;1.20;;
29816;SDS011;16805;52.956;5.906;2024-01-27T05:48:14;2.60;;;1.42;;
29816;SDS011;16805;52.956;5.906;2024-01-27T05:50:54;16.70;;;1.52;;
29816;SDS011;16805;52.956;5.906;2024-01-27T05:53:26;3.90;;;1.23;;
29816;SDS011;16805;52.956;5.906;2024-01-27T05:55:53;7.05;;;1.30;;
29816;SDS011;16805;52.956;5.906;2024-01-27T05:58:24;7.50;;;1.52;;
29816;SDS011;16805;52.956;5.906;2024-01-27T06:00:50;8.88;;;1.23;;
29816;SDS011;16805;52.956;5.906;2024-01-27T06:03:18;9.65;;;1.25;;
29816;SDS011;16805;52.956;5.906;2024-01-27T06:05:46;9.40;;;0.93;;
29816;SDS011;16805;52.956;5.906;2024-01-27T06:08:12;7.97;;;1.40;;
29816;SDS011;16805;52.956;5.906;2024-01-27T06:10:38;7.93;;;1.83;;
29816;SDS011;16805;52.956;5.906;2024-01-27T06:13:04;7.07;;;1.08;;
29816;SDS011;16805;52.956;5.906;2024-01-27T06:15:35;4.90;;;1.63;;
29816;SDS011;16805;52.956;5.906;2024-01-27T06:18:07;14.45;;;1.38;;
29816;SDS011;16805;52.956;5.906;2024-01-27T06:20:35;10.98;;;1.08;;
29816;SDS011;16805;52.956;5.906;2024-01-27T06:23:01;4.30;;;1.48;;
29816;SDS011;16805;52.956;5.906;2024-01-27T06:25:26;5.78;;;0.93;;
29816;SDS011;16805;52.956;5.906;2024-01-27T06:27:55;11.98;;;1.33;;
29816;SDS011;16805;52.956;5.906;2024-01-27T06:30:21;5.28;;;1.00;;
29816;SDS011;16805;52.956;5.906;2024-01-27T06:32:46;8.27;;;1.33;;
29816;SDS011;16805;52.956;5.906;2024-01-27T06:35:12;10.80;;;1.30;;
29816;SDS011;16805;52.956;5.906;2024-01-27T06:37:38;11.77;;;1.20;;
29816;SDS011;16805;52.956;5.906;2024-01-27T06:40:04;7.53;;;1.05;;
29816;SDS011;16805;52.956;5.906;2024-01-27T06:42:39;10.70;;;0.90;;
29816;SDS011;16805;52.956;5.906;2024-01-27T06:45:07;10.52;;;1.42;;
29816;SDS011;16805;52.956;5.906;2024-01-27T06:47:33;4.68;;;1.15;;
29816;SDS011;16805;52.956;5.906;2024-01-27T06:49:58;9.65;;;1.02;;
29816;SDS011;16805;52.956;5.906;2024-01-27T06:52:24;4.13;;;0.85;;
29816;SDS011;16805;52.956;5.906;2024-01-27T06:54:55;12.13;;;1.17;;
29816;SDS011;16805;52.956;5.906;2024-01-27T06:57:21;6.75;;;1.00;;
29816;SDS011;16805;52.956;5.906;2024-01-27T06:59:56;13.80;;;1.40;;
29816;SDS011;16805;52.956;5.906;2024-01-27T07:02:29;5.40;;;1.00;;
29816;SDS011;16805;52.956;5.906;2024-01-27T07:05:53;14.98;;;1.60;;
29816;SDS011;16805;52.956;5.906;2024-01-27T07:08:47;6.55;;;1.15;;
29816;SDS011;16805;52.956;5.906;2024-01-27T07:11:31;9.80;;;1.33;;
29816;SDS011;16805;52.956;5.906;2024-01-27T07:38:21;7.75;;;1.15;;
29816;SDS011;16805;52.956;5.906;2024-01-27T07:40:53;7.72;;;1.00;;
29816;SDS011;16805;52.956;5.906;2024-01-27T07:46:23;9.73;;;1.52;;
29816;SDS011;16805;52.956;5.906;2024-01-27T07:48:58;10.50;;;1.73;;
29816;SDS011;16805;52.956;5.906;2024-01-27T07:51:27;8.68;;;1.45;;
29816;SDS011;16805;52.956;5.906;2024-01-27T07:54:18;5.47;;;1.23;;
29816;SDS011;16805;52.956;5.906;2024-01-27T07:56:49;6.05;;;1.73;;
29816;SDS011;16805;52.956;5.906;2024-01-27T07:59:20;14.70;;;1.92;;
29816;SDS011;16805;52.956;5.906;2024-01-27T08:01:46;7.97;;;1.73;;
29816;SDS011;16805;52.956;5.906;2024-01-27T08:04:15;6.50;;;1.52;;
29816;SDS011;16805;52.956;5.906;2024-01-27T08:06:48;2.55;;;1.40;;
29816;SDS011;16805;52.956;5.906;2024-01-27T08:09:15;5.47;;;1.65;;
29816;SDS011;16805;52.956;5.906;2024-01-27T08:11:41;3.30;;;1.30;;
29816;SDS011;16805;52.956;5.906;2024-01-27T08:14:07;13.98;;;2.25;;
29816;SDS011;16805;52.956;5.906;2024-01-27T08:16:35;9.52;;;1.92;;
29816;SDS011;16805;52.956;5.906;2024-01-27T08:19:01;11.55;;;2.13;;
29816;SDS011;16805;52.956;5.906;2024-01-27T08:21:26;4.32;;;1.88;;
29816;SDS011;16805;52.956;5.906;2024-01-27T08:23:54;7.93;;;1.95;;
29816;SDS011;16805;52.956;5.906;2024-01-27T08:26:23;15.85;;;2.13;;
29816;SDS011;16805;52.956;5.906;2024-01-27T08:28:49;14.88;;;2.33;;
29816;SDS011;16805;52.956;5.906;2024-01-27T08:31:14;5.07;;;1.85;;
29816;SDS011;16805;52.956;5.906;2024-01-27T08:33:42;8.75;;;2.00;;
29816;SDS011;16805;52.956;5.906;2024-01-27T08:36:12;13.10;;;2.50;;
29816;SDS011;16805;52.956;5.906;2024-01-27T08:38:39;4.60;;;1.83;;
29816;SDS011;16805;52.956;5.906;2024-01-27T08:41:04;6.55;;;2.15;;
29816;SDS011;16805;52.956;5.906;2024-01-27T08:43:32;8.15;;;2.13;;
29816;SDS011;16805;52.956;5.906;2024-01-27T08:46:00;8.13;;;1.67;;
29816;SDS011;16805;52.956;5.906;2024-01-27T08:48:29;9.52;;;2.40;;
29816;SDS011;16805;52.956;5.906;2024-01-27T08:50:54;5.43;;;1.80;;
29816;SDS011;16805;52.956;5.906;2024-01-27T08:53:22;6.32;;;1.85;;
29816;SDS011;16805;52.956;5.906;2024-01-27T08:55:54;5.40;;;1.67;;
29816;SDS011;16805;52.956;5.906;2024-01-27T08:58:19;11.13;;;2.15;;
29816;SDS011;16805;52.956;5.906;2024-01-27T09:00:51;2.70;;;1.13;;
29816;SDS011;16805;52.956;5.906;2024-01-27T09:03:18;13.18;;;2.20;;
29816;SDS011;16805;52.956;5.906;2024-01-27T09:05:46;6.28;;;1.80;;
29816;SDS011;16805;52.956;5.906;2024-01-27T09:08:12;8.60;;;2.55;;
29816;SDS011;16805;52.956;5.906;2024-01-27T09:10:41;8.93;;;2.22;;
29816;SDS011;16805;52.956;5.906;2024-01-27T09:13:06;4.70;;;1.60;;
29816;SDS011;16805;52.956;5.906;2024-01-27T09:15:32;5.00;;;1.38;;
29816;SDS011;16805;52.956;5.906;2024-01-27T09:18:02;6.90;;;1.42;;
29816;SDS011;16805;52.956;5.906;2024-01-27T09:20:29;12.10;;;1.95;;
29816;SDS011;16805;52.956;5.906;2024-01-27T09:22:54;14.80;;;2.53;;
29816;SDS011;16805;52.956;5.906;2024-01-27T09:25:20;10.32;;;2.00;;
29816;SDS011;16805;52.956;5.906;2024-01-27T09:27:49;11.07;;;2.30;;
29816;SDS011;16805;52.956;5.906;2024-01-27T09:30:15;4.75;;;1.75;;
29816;SDS011;16805;52.956;5.906;2024-01-27T09:32:43;7.68;;;1.92;;
29816;SDS011;16805;52.956;5.906;2024-01-27T09:35:08;5.75;;;1.73;;
29816;SDS011;16805;52.956;5.906;2024-01-27T09:37:34;12.13;;;1.90;;
29816;SDS011;16805;52.956;5.906;2024-01-27T09:40:02;4.88;;;1.75;;
29816;SDS011;16805;52.956;5.906;2024-01-27T09:42:29;5.18;;;1.52;;
29816;SDS011;16805;52.956;5.906;2024-01-27T09:45:03;4.28;;;1.63;;
29816;SDS011;16805;52.956;5.906;2024-01-27T09:47:33;5.22;;;2.80;;
29816;SDS011;16805;52.956;5.906;2024-01-27T09:50:10;6.82;;;1.52;;
29816;SDS011;16805;52.956;5.906;2024-01-27T09:52:37;5.47;;;1.73;;
29816;SDS011;16805;52.956;5.906;2024-01-27T09:55:03;9.88;;;2.35;;
29816;SDS011;16805;52.956;5.906;2024-01-27T09:57:34;8.35;;;2.08;;
29816;SDS011;16805;52.956;5.906;2024-01-27T10:00:09;11.40;;;2.08;;
29816;SDS011;16805;52.956;5.906;2024-01-27T10:02:41;10.55;;;2.50;;
29816;SDS011;16805;52.956;5.906;2024-01-27T10:05:10;5.22;;;2.40;;
29816;SDS011;16805;52.956;5.906;2024-01-27T10:07:37;12.90;;;2.10;;
29816;SDS011;16805;52.956;5.906;2024-01-27T10:10:04;4.78;;;1.88;;
29816;SDS011;16805;52.956;5.906;2024-01-27T10:12:31;13.98;;;2.00;;
29816;SDS011;16805;52.956;5.906;2024-01-27T10:15:17;12.10;;;2.65;;
29816;SDS011;16805;52.956;5.906;2024-01-27T10:17:46;9.80;;;2.42;;
29816;SDS011;16805;52.956;5.906;2024-01-27T10:20:15;7.63;;;2.22;;
29816;SDS011;16805;52.956;5.906;2024-01-27T10:22:41;11.98;;;2.17;;
29816;SDS011;16805;52.956;5.906;2024-01-27T10:25:11;4.70;;;1.80;;
29816;SDS011;16805;52.956;5.906;2024-01-27T10:27:40;10.50;;;2.40;;
29816;SDS011;16805;52.956;5.906;2024-01-27T10:30:14;7.28;;;2.20;;
29816;SDS011;16805;52.956;5.906;2024-01-27T10:32:54;7.80;;;2.45;;
29816;SDS011;16805;52.956;5.906;2024-01-27T10:35:23;8.32;;;2.17;;
29816;SDS011;16805;52.956;5.906;2024-01-27T10:37:52;5.57;;;2.45;;
29816;SDS011;16805;52.956;5.906;2024-01-27T10:40:21;7.53;;;1.98;;
29816;SDS011;16805;52.956;5.906;2024-01-27T10:43:07;8.23;;;2.38;;
29816;SDS011;16805;52.956;5.906;2024-01-27T10:45:42;11.13;;;2.20;;
29816;SDS011;16805;52.956;5.906;2024-01-27T10:48:08;14.35;;;2.92;;
29816;SDS011;16805;52.956;5.906;2024-01-27T10:50:38;11.68;;;2.20;;
29816;SDS011;16805;52.956;5.906;2024-01-27T10:53:05;9.88;;;2.20;;
29816;SDS011;16805;52.956;5.906;2024-01-27T10:55:35;6.93;;;2.00;;
29816;SDS011;16805;52.956;5.906;2024-01-27T10:58:03;8.23;;;2.38;;
29816;SDS011;16805;52.956;5.906;2024-01-27T11:00:29;2.60;;;1.63;;
29816;SDS011;16805;52.956;5.906;2024-01-27T11:02:58;10.02;;;2.78;;
29816;SDS011;16805;52.956;5.906;2024-01-27T11:05:27;5.32;;;2.33;;
29816;SDS011;16805;52.956;5.906;2024-01-27T11:07:54;8.13;;;2.08;;
29816;SDS011;16805;52.956;5.906;2024-01-27T11:10:24;11.35;;;3.65;;
29816;SDS011;16805;52.956;5.906;2024-01-27T11:13:03;12.95;;;2.22;;
29816;SDS011;16805;52.956;5.906;2024-01-27T11:15:32;8.50;;;2.30;;
29816;SDS011;16805;52.956;5.906;2024-01-27T11:18:01;12.88;;;3.17;;
29816;SDS011;16805;52.956;5.906;2024-01-27T11:20:30;6.40;;;2.00;;
29816;SDS011;16805;52.956;5.906;2024-01-27T11:23:07;12.38;;;2.60;;
29816;SDS011;16805;52.956;5.906;2024-01-27T11:26:01;9.07;;;3.22;;
29816;SDS011;16805;52.956;5.906;2024-01-27T11:28:27;7.40;;;2.13;;
29816;SDS011;16805;52.956;5.906;2024-01-27T11:31:03;8.82;;;2.65;;
29816;SDS011;16805;52.956;5.906;2024-01-27T11:33:29;8.95;;;2.78;;
29816;SDS011;16805;52.956;5.906;2024-01-27T11:36:02;9.02;;;2.70;;
29816;SDS011;16805;52.956;5.906;2024-01-27T11:38:30;9.00;;;2.35;;
29816;SDS011;16805;52.956;5.906;2024-01-27T11:41:01;8.00;;;2.45;;
29816;SDS011;16805;52.956;5.906;2024-01-27T11:43:32;13.17;;;3.17;;
29816;SDS011;16805;52.956;5.906;2024-01-27T11:46:01;16.65;;;2.97;;
29816;SDS011;16805;52.956;5.906;2024-01-27T11:48:33;4.00;;;2.47;;
29816;SDS011;16805;52.956;5.906;2024-01-27T11:51:07;7.53;;;2.55;;
29816;SDS011;16805;52.956;5.906;2024-01-27T11:53:51;10.65;;;3.05;;
29816;SDS011;16805;52.956;5.906;2024-01-27T11:56:17;14.88;;;2.97;;
29816;SDS011;16805;52.956;5.906;2024-01-27T11:58:49;6.07;;;2.70;;
29816;SDS011;16805;52.956;5.906;2024-01-27T12:01:15;14.23;;;3.20;;
29816;SDS011;16805;52.956;5.906;2024-01-27T12:03:41;8.30;;;2.88;;
29816;SDS011;16805;52.956;5.906;2024-01-27T12:06:10;11.18;;;2.97;;
29816;SDS011;16805;52.956;5.906;2024-01-27T12:08:40;8.63;;;3.28;;
29816;SDS011;16805;52.956;5.906;2024-01-27T12:11:11;5.80;;;2.42;;
29816;SDS011;16805;52.956;5.906;2024-01-27T12:13:40;8.68;;;2.97;;
29816;SDS011;16805;52.956;5.906;2024-01-27T12:16:06;11.55;;;3.28;;
29816;SDS011;16805;52.956;5.906;2024-01-27T12:18:39;10.73;;;2.92;;
29816;SDS011;16805;52.956;5.906;2024-01-27T12:21:10;8.05;;;2.90;;
29816;SDS011;16805;52.956;5.906;2024-01-27T12:23:38;9.50;;;4.15;;
29816;SDS011;16805;52.956;5.906;2024-01-27T12:26:16;11.95;;;3.47;;
29816;SDS011;16805;52.956;5.906;2024-01-27T12:28:44;9.77;;;3.70;;
29816;SDS011;16805;52.956;5.906;2024-01-27T12:31:11;9.38;;;3.25;;
29816;SDS011;16805;52.956;5.906;2024-01-27T12:33:47;11.20;;;3.22;;
29816;SDS011;16805;52.956;5.906;2024-01-27T12:36:17;8.88;;;3.40;;
29816;SDS011;16805;52.956;5.906;2024-01-27T12:38:59;17.25;;;2.75;;
29816;SDS011;16805;52.956;5.906;2024-01-27T12:41:26;9.45;;;2.90;;
29816;SDS011;16805;52.956;5.906;2024-01-27T12:43:53;8.60;;;2.53;;
29816;SDS011;16805;52.956;5.906;2024-01-27T12:46:19;11.02;;;3.10;;
29816;SDS011;16805;52.956;5.906;2024-01-27T12:48:45;11.40;;;2.50;;
29816;SDS011;16805;52.956;5.906;2024-01-27T12:51:16;6.95;;;2.78;;
29816;SDS011;16805;52.956;5.906;2024-01-27T12:53:44;8.68;;;2.83;;
29816;SDS011;16805;52.956;5.906;2024-01-27T12:56:11;13.88;;;3.05;;
29816;SDS011;16805;52.956;5.906;2024-01-27T12:58:40;14.73;;;3.90;;
29816;SDS011;16805;52.956;5.906;2024-01-27T13:01:11;18.92;;;3.65;;
29816;SDS011;16805;52.956;5.906;2024-01-27T13:03:40;6.15;;;3.20;;
29816;SDS011;16805;52.956;5.906;2024-01-27T13:06:06;8.35;;;3.00;;
29816;SDS011;16805;52.956;5.906;2024-01-27T13:08:34;15.05;;;3.58;;
29816;SDS011;16805;52.956;5.906;2024-01-27T13:11:02;15.02;;;3.22;;
29816;SDS011;16805;52.956;5.906;2024-01-27T13:13:28;15.50;;;3.33;;
29816;SDS011;16805;52.956;5.906;2024-01-27T13:15:54;13.73;;;2.92;;
29816;SDS011;16805;52.956;5.906;2024-01-27T13:18:19;15.68;;;3.30;;
29816;SDS011;16805;52.956;5.906;2024-01-27T13:20:47;7.15;;;3.05;;
29816;SDS011;16805;52.956;5.906;2024-01-27T13:23:19;6.28;;;2.90;;
29816;SDS011;16805;52.956;5.906;2024-01-27T13:25:45;10.55;;;3.15;;
29816;SDS011;16805;52.956;5.906;2024-01-27T13:28:19;9.50;;;2.85;;
29816;SDS011;16805;52.956;5.906;2024-01-27T13:30:55;10.73;;;3.28;;
29816;SDS011;16805;52.956;5.906;2024-01-27T13:33:21;10.15;;;2.95;;
29816;SDS011;16805;52.956;5.906;2024-01-27T13:35:49;9.13;;;3.05;;
29816;SDS011;16805;52.956;5.906;2024-01-27T13:38:32;15.30;;;3.75;;
29816;SDS011;16805;52.956;5.906;2024-01-27T13:41:13;7.60;;;3.88;;
29816;SDS011;16805;52.956;5.906;2024-01-27T13:43:47;16.92;;;4.00;;
29816;SDS011;16805;52.956;5.906;2024-01-27T13:46:15;13.98;;;3.30;;
29816;SDS011;16805;52.956;5.906;2024-01-27T13:48:41;11.23;;;3.58;;
29816;SDS011;16805;52.956;5.906;2024-01-27T13:51:16;14.60;;;4.78;;
29816;SDS011;16805;52.956;5.906;2024-01-27T13:54:16;11.63;;;3.70;;
29816;SDS011;16805;52.956;5.906;2024-01-27T13:56:50;7.53;;;3.67;;
29816;SDS011;16805;52.956;5.906;2024-01-27T14:02:31;11.93;;;3.13;;
29816;SDS011;16805;52.956;5.906;2024-01-27T14:05:06;6.72;;;3.97;;
29816;SDS011;16805;52.956;5.906;2024-01-27T14:07:56;27.45;;;5.70;;
29816;SDS011;16805;52.956;5.906;2024-01-27T14:10:28;9.40;;;2.60;;
29816;SDS011;16805;52.956;5.906;2024-01-27T14:13:11;7.75;;;3.30;;
29816;SDS011;16805;52.956;5.906;2024-01-27T14:15:39;10.32;;;3.33;;
29816;SDS011;16805;52.956;5.906;2024-01-27T14:18:19;9.57;;;3.03;;
29816;SDS011;16805;52.956;5.906;2024-01-27T14:23:57;8.95;;;2.78;;
29816;SDS011;16805;52.956;5.906;2024-01-27T14:26:28;23.38;;;4.05;;
29816;SDS011;16805;52.956;5.906;2024-01-27T14:29:05;14.88;;;3.72;;
29816;SDS011;16805;52.956;5.906;2024-01-27T14:31:31;5.68;;;2.58;;
29816;SDS011;16805;52.956;5.906;2024-01-27T14:34:11;9.52;;;3.38;;
29816;SDS011;16805;52.956;5.906;2024-01-27T14:36:41;7.65;;;3.08;;
29816;SDS011;16805;52.956;5.906;2024-01-27T14:39:08;7.03;;;2.30;;
29816;SDS011;16805;52.956;5.906;2024-01-27T14:41:41;15.38;;;3.03;;
29816;SDS011;16805;52.956;5.906;2024-01-27T14:44:16;4.65;;;2.00;;
29816;SDS011;16805;52.956;5.906;2024-01-27T14:47:00;14.73;;;2.95;;
29816;SDS011;16805;52.956;5.906;2024-01-27T14:49:25;6.88;;;2.55;;
29816;SDS011;16805;52.956;5.906;2024-01-27T14:51:54;11.68;;;2.75;;
29816;SDS011;16805;52.956;5.906;2024-01-27T14:54:20;8.57;;;2.20;;
29816;SDS011;16805;52.956;5.906;2024-01-27T14:56:45;8.63;;;2.70;;
29816;SDS011;16805;52.956;5.906;2024-01-27T14:59:40;7.25;;;2.58;;
29816;SDS011;16805;52.956;5.906;2024-01-27T15:02:05;8.43;;;2.88;;
29816;SDS011;16805;52.956;5.906;2024-01-27T15:04:40;11.48;;;2.78;;
29816;SDS011;16805;52.956;5.906;2024-01-27T15:07:27;10.50;;;3.70;;
29816;SDS011;16805;52.956;5.906;2024-01-27T15:10:01;11.07;;;2.85;;
29816;SDS011;16805;52.956;5.906;2024-01-27T15:12:30;4.40;;;2.25;;
29816;SDS011;16805;52.956;5.906;2024-01-27T15:15:01;11.85;;;2.85;;
29816;SDS011;16805;52.956;5.906;2024-01-27T15:17:46;6.72;;;2.35;;
29816;SDS011;16805;52.956;5.906;2024-01-27T15:20:17;7.18;;;2.15;;
29816;SDS011;16805;52.956;5.906;2024-01-27T15:22:46;7.55;;;2.47;;
29816;SDS011;16805;52.956;5.906;2024-01-27T15:25:11;11.07;;;2.05;;
29816;SDS011;16805;52.956;5.906;2024-01-27T15:27:40;6.55;;;2.63;;
29816;SDS011;16805;52.956;5.906;2024-01-27T15:30:27;9.98;;;2.45;;